Time;durP1;ratioP1;P1;durP2;ratioP2;P2;SDS_P1;SDS_P2;PMS_P1;PMS_P2;Temp;Humidity;BMP_temperature;BMP_pressure;BME280_temperature;BME280_humidity;BME280_pressure;Samples;Min_cycle;Max_cycle;Signal;HPM_P1;HPM_P2
2021/04/04 00:01:50;;;;;;;;;;;6.70;99.90;;;;;;5084539;28;20362;-72
2021/04/04 00:04:15;;;;;;;;;;;6.70;99.90;;;;;;5079796;28;19908;-69
2021/04/04 00:06:41;;;;;;;;;;;6.50;99.90;;;;;;5084566;28;19966;-70
2021/04/04 00:09:07;;;;;;;;;;;6.50;99.90;;;;;;5087168;28;19912;-71
2021/04/04 00:11:32;;;;;;;;;;;6.50;99.90;;;;;;5093586;28;19969;-70
2021/04/04 00:13:58;;;;;;;;;;;6.40;99.90;;;;;;5094172;28;19954;-71
2021/04/04 00:16:24;;;;;;;;;;;6.50;99.90;;;;;;5093805;28;19910;-70
2021/04/04 00:18:49;;;;;;;;;;;6.40;99.90;;;;;;5092636;28;19915;-69
2021/04/04 00:21:15;;;;;;;;;;;6.40;99.90;;;;;;5093859;28;20400;-70
2021/04/04 00:23:40;;;;;;;;;;;6.30;99.90;;;;;;5085342;28;20282;-71
2021/04/04 00:26:06;;;;;;;;;;;6.30;99.90;;;;;;5078896;28;19919;-70
2021/04/04 00:28:31;;;;;;;;;;;6.30;99.90;;;;;;5088581;28;19904;-69
2021/04/04 00:30:57;;;;;;;;;;;6.30;99.90;;;;;;5093966;28;19963;-68
2021/04/04 00:33:23;;;;;;;;;;;6.20;99.90;;;;;;5091759;28;20429;-71
2021/04/04 00:35:49;;;;;;;;;;;6.20;99.90;;;;;;5095137;28;19984;-69
2021/04/04 00:38:14;;;;;;;;;;;6.10;99.90;;;;;;5091332;28;19936;-70
2021/04/04 00:40:40;;;;;;;;;;;6.10;99.90;;;;;;5093296;28;19904;-73
2021/04/04 00:43:06;;;;;;;;;;;6.10;99.90;;;;;;5091133;28;19904;-71
2021/04/04 00:45:36;;;;;;;;;;;6.10;99.90;;;;;;5093051;28;19904;-71
2021/04/04 00:48:02;;;;;;;;;;;6.10;99.90;;;;;;5094797;28;20041;-70
2021/04/04 00:50:29;;;;;;;;;;;5.30;99.90;;;;;;5091165;28;20010;-72
2021/04/04 00:52:59;;;;;;;;;;;6.10;99.90;;;;;;5093820;28;20385;-70
2021/04/04 00:55:24;;;;;;;;;;;6.10;99.90;;;;;;5091932;28;19915;-68
2021/04/04 00:57:51;;;;;;;;;;;6.00;99.90;;;;;;5092548;28;19904;-68
2021/04/04 01:00:18;;;;;;;;;;;6.40;99.90;;;;;;5091036;28;20001;-68
2021/04/04 01:02:44;;;;;;;;;;;6.00;99.90;;;;;;5093509;28;19904;-70
2021/04/04 01:05:12;;;;;;;;;;;6.10;99.90;;;;;;5091452;28;19908;-68
2021/04/04 01:07:38;;;;;;;;;;;6.00;99.90;;;;;;5092182;28;19908;-69
2021/04/04 01:10:04;;;;;;;;;;;;;;;;;;5092600;28;20358;-68
2021/04/04 01:12:30;;;;;;;;;;;;;;;;;;5092365;28;19904;-68
2021/04/04 01:15:01;;;;;;;;;;;6.10;99.90;;;;;;5093112;28;19943;-68
2021/04/04 01:17:28;;;;;;;;;;;6.00;99.90;;;;;;5092843;28;19904;-74
2021/04/04 01:20:04;;;;;;;;;;;5.60;99.90;;;;;;5092970;28;19926;-73
2021/04/04 01:22:36;;;;;;;;;;;5.60;99.90;;;;;;5094345;28;19904;-70
2021/04/04 01:25:12;;;;;;;;;;;5.30;99.90;;;;;;5056988;28;20337;-71
2021/04/04 01:27:42;;;;;;;;;;;4.90;99.90;;;;;;5093593;28;19916;-70
2021/04/04 01:30:08;;;;;;;;;;;6.70;99.90;;;;;;5093087;28;19904;-70
2021/04/04 01:32:35;;;;;;;;;;;5.70;99.90;;;;;;5091547;28;19931;-69
2021/04/04 01:35:01;;;;;;;;;;;5.90;99.90;;;;;;5087959;28;19911;-70
2021/04/04 01:37:27;;;;;;;;;;;5.90;99.90;;;;;;5080159;28;19927;-69
2021/04/04 01:39:58;;;;;;;;;;;5.30;99.90;;;;;;5093160;28;20273;-69
2021/04/04 01:42:25;;;;;;;;;;;;;;;;;;5068626;28;19916;-70
2021/04/04 01:44:52;;;;;;;;;;;5.70;99.90;;;;;;5084967;28;19911;-69
2021/04/04 01:47:18;;;;;;;;;;;5.60;99.90;;;;;;5080519;28;19908;-70
2021/04/04 01:49:45;;;;;;;;;;;5.00;99.90;;;;;;5087532;28;19904;-70
2021/04/04 01:52:11;;;;;;;;;;;6.10;99.90;;;;;;5081097;28;19916;-70
2021/04/04 01:54:37;;;;;;;;;;;5.00;99.90;;;;;;5067788;28;19947;-70
2021/04/04 01:57:03;;;;;;;;;;;5.60;99.90;;;;;;5081726;28;19943;-68
2021/04/04 01:59:31;;;;;;;;;;;5.20;99.90;;;;;;5084124;28;19907;-69
2021/04/04 02:01:58;;;;;;;;;;;5.90;99.90;;;;;;5058172;28;19940;-69
2021/04/04 02:04:23;;;;;;;;;;;5.80;99.90;;;;;;5081748;28;19904;-69
2021/04/04 02:06:49;;;;;;;;;;;5.90;99.90;;;;;;5079466;28;19904;-72
2021/04/04 02:09:16;;;;;;;;;;;6.00;99.90;;;;;;5086799;28;19908;-69
2021/04/04 02:11:42;;;;;;;;;;;6.10;99.90;;;;;;5085814;28;20369;-72
2021/04/04 02:14:10;;;;;;;;;;;6.10;99.90;;;;;;5080999;28;19912;-70
2021/04/04 02:16:36;;;;;;;;;;;6.10;99.90;;;;;;5055376;28;20366;-71
2021/04/04 02:19:03;;;;;;;;;;;6.20;99.90;;;;;;5087018;28;19904;-70
2021/04/04 02:21:29;;;;;;;;;;;6.10;99.90;;;;;;5092089;28;19958;-69
2021/04/04 02:23:55;;;;;;;;;;;6.10;99.90;;;;;;5092510;28;20006;-70
2021/04/04 02:26:21;;;;;;;;;;;6.20;99.90;;;;;;5092685;28;19978;-70
2021/04/04 02:28:49;;;;;;;;;;;6.20;99.90;;;;;;5092993;28;19904;-70
2021/04/04 02:31:16;;;;;;;;;;;6.20;99.90;;;;;;5093191;28;19916;-70
2021/04/04 02:33:46;;;;;;;;;;;6.10;99.90;;;;;;5081494;28;19908;-71
2021/04/04 02:36:13;;;;;;;;;;;6.10;99.90;;;;;;5093623;28;19904;-68
2021/04/04 02:38:50;;;;;;;;;;;6.20;99.90;;;;;;5093293;28;20312;-70
2021/04/04 02:41:16;;;;;;;;;;;6.20;99.90;;;;;;5093068;28;20395;-71
2021/04/04 02:43:43;;;;;;;;;;;6.20;99.90;;;;;;5092874;28;19904;-68
2021/04/04 02:46:11;;;;;;;;;;;6.20;99.90;;;;;;5092122;28;19908;-70
2021/04/04 02:48:41;;;;;;;;;;;6.20;99.90;;;;;;5092115;28;19908;-69
2021/04/04 02:51:08;;;;;;;;;;;6.30;99.90;;;;;;5092150;28;19916;-70
2021/04/04 02:53:41;;;;;;;;;;;6.20;99.90;;;;;;5092213;28;19915;-69
2021/04/04 02:56:09;;;;;;;;;;;6.20;99.90;;;;;;5091628;28;20027;-69
2021/04/04 02:58:35;;;;;;;;;;;6.20;99.90;;;;;;5092232;28;19927;-70
2021/04/04 03:01:01;;;;;;;;;;;6.10;99.90;;;;;;5075413;28;19952;-68
2021/04/04 03:03:27;;;;;;;;;;;6.20;99.90;;;;;;5081147;28;19907;-69
2021/04/04 03:05:55;;;;;;;;;;;6.20;99.90;;;;;;5076587;28;19970;-70
2021/04/04 03:08:21;;;;;;;;;;;6.10;99.90;;;;;;5078506;28;19915;-68
2021/04/04 03:10:51;;;;;;;;;;;6.20;99.90;;;;;;5076506;28;19913;-69
2021/04/04 03:13:21;;;;;;;;;;;6.20;99.90;;;;;;5077092;28;19905;-70
2021/04/04 03:15:48;;;;;;;;;;;6.10;99.90;;;;;;5077941;28;19904;-70
2021/04/04 03:18:14;;;;;;;;;;;6.10;99.90;;;;;;5065774;28;19989;-68
2021/04/04 03:20:39;;;;;;;;;;;6.00;99.90;;;;;;5089473;28;19915;-70
2021/04/04 03:23:05;;;;;;;;;;;6.00;99.90;;;;;;5093466;28;19908;-69
2021/04/04 03:25:31;;;;;;;;;;;6.00;99.90;;;;;;5075175;28;20006;-68
2021/04/04 03:27:57;;;;;;;;;;;6.00;99.90;;;;;;5075203;28;19959;-69
2021/04/04 03:30:35;;;;;;;;;;;6.00;99.90;;;;;;5093236;28;19948;-69
2021/04/04 03:33:04;;;;;;;;;;;6.00;99.90;;;;;;5093114;28;19927;-69
2021/04/04 03:35:30;;;;;;;;;;;6.00;99.90;;;;;;5097175;28;19947;-68
2021/04/04 03:37:57;;;;;;;;;;;5.90;99.90;;;;;;5097329;28;19910;-69
2021/04/04 03:40:23;;;;;;;;;;;5.90;99.90;;;;;;5097609;28;19904;-70
2021/04/04 03:42:49;;;;;;;;;;;5.90;99.90;;;;;;5097308;28;19911;-68
2021/04/04 03:45:15;;;;;;;;;;;5.90;99.90;;;;;;5096885;28;19919;-69
2021/04/04 03:47:42;;;;;;;;;;;5.90;99.90;;;;;;5097286;28;20307;-69
2021/04/04 03:50:08;;;;;;;;;;;5.90;99.90;;;;;;5096758;28;20239;-70
2021/04/04 03:52:35;;;;;;;;;;;5.90;99.90;;;;;;5096513;28;20000;-68
2021/04/04 03:55:01;;;;;;;;;;;5.90;99.90;;;;;;5096632;28;19904;-71
2021/04/04 03:57:26;;;;;;;;;;;5.90;99.90;;;;;;5097144;28;19910;-70
2021/04/04 03:59:53;;;;;;;;;;;5.90;99.90;;;;;;5096474;28;19903;-70
2021/04/04 04:02:23;;;;;;;;;;;5.90;99.90;;;;;;5096565;28;20434;-70
2021/04/04 04:04:49;;;;;;;;;;;6.00;99.90;;;;;;5096687;28;20052;-69
2021/04/04 04:07:14;;;;;;;;;;;6.00;99.90;;;;;;5096198;28;19911;-70
2021/04/04 04:09:41;;;;;;;;;;;5.90;99.90;;;;;;5096592;28;19990;-70
2021/04/04 04:12:06;;;;;;;;;;;5.90;99.90;;;;;;5096548;28;19987;-69
2021/04/04 04:14:32;;;;;;;;;;;5.80;99.90;;;;;;5096546;28;19912;-69
2021/04/04 04:16:58;;;;;;;;;;;5.80;99.90;;;;;;5096672;28;20316;-69
2021/04/04 04:19:24;;;;;;;;;;;5.70;99.90;;;;;;5096523;28;19904;-70
2021/04/04 04:21:50;;;;;;;;;;;5.60;99.90;;;;;;5095430;28;19908;-69
2021/04/04 04:24:16;;;;;;;;;;;5.50;99.90;;;;;;5095797;28;20284;-70
2021/04/04 04:26:43;;;;;;;;;;;5.60;99.90;;;;;;5095199;28;19920;-68
2021/04/04 04:29:10;;;;;;;;;;;5.50;99.90;;;;;;5094516;28;19908;-69
2021/04/04 04:31:37;;;;;;;;;;;5.40;99.90;;;;;;5093316;28;19956;-67
2021/04/04 04:34:04;;;;;;;;;;;5.50;99.90;;;;;;5094604;28;19915;-68
2021/04/04 04:36:30;;;;;;;;;;;5.60;99.90;;;;;;5093506;28;19950;-69
2021/04/04 04:38:57;;;;;;;;;;;5.70;99.90;;;;;;5094633;28;20423;-68
2021/04/04 04:41:23;;;;;;;;;;;5.80;99.90;;;;;;5092983;28;19982;-71
2021/04/04 04:43:52;;;;;;;;;;;5.80;99.90;;;;;;5094731;28;20345;-68
2021/04/04 04:46:18;;;;;;;;;;;5.80;99.90;;;;;;5094956;28;19994;-71
2021/04/04 04:48:44;;;;;;;;;;;5.80;99.90;;;;;;5092516;28;20322;-68
2021/04/04 04:51:10;;;;;;;;;;;5.70;99.90;;;;;;5094498;28;20002;-67
2021/04/04 04:53:36;;;;;;;;;;;5.80;99.90;;;;;;5092708;28;20335;-66
2021/04/04 04:56:02;;;;;;;;;;;5.80;99.90;;;;;;5094176;28;19904;-69
2021/04/04 04:58:29;;;;;;;;;;;5.70;99.90;;;;;;5094642;28;19904;-70
2021/04/04 05:00:58;;;;;;;;;;;5.80;99.90;;;;;;5087262;28;19944;-69
2021/04/04 05:03:23;;;;;;;;;;;5.90;99.90;;;;;;5079172;28;19991;-69
2021/04/04 05:05:49;;;;;;;;;;;5.90;99.90;;;;;;5063982;28;19990;-69
2021/04/04 05:08:16;;;;;;;;;;;5.80;99.90;;;;;;5083149;28;20300;-69
2021/04/04 05:10:41;;;;;;;;;;;5.90;99.90;;;;;;5078154;28;19912;-70
2021/04/04 05:13:08;;;;;;;;;;;5.80;99.90;;;;;;5077263;28;19961;-70
2021/04/04 05:15:34;;;;;;;;;;;5.90;99.90;;;;;;5079341;28;19904;-70
2021/04/04 05:17:59;;;;;;;;;;;5.90;99.90;;;;;;5076748;28;19904;-69
2021/04/04 05:20:25;;;;;;;;;;;6.00;99.90;;;;;;5088101;28;19919;-68
2021/04/04 05:22:51;;;;;;;;;;;6.00;99.90;;;;;;5095108;28;20243;-68
2021/04/04 05:25:16;;;;;;;;;;;6.00;99.90;;;;;;5094717;28;19908;-67
2021/04/04 05:27:42;;;;;;;;;;;6.10;99.90;;;;;;5095231;28;19920;-67
2021/04/04 05:30:11;;;;;;;;;;;6.10;99.90;;;;;;5095098;28;19908;-67
2021/04/04 05:32:47;;;;;;;;;;;5.90;99.90;;;;;;5095162;28;20645;-68
2021/04/04 05:35:17;;;;;;;;;;;6.00;99.90;;;;;;5081577;28;19908;-68
2021/04/04 05:37:44;;;;;;;;;;;6.10;99.90;;;;;;5094802;28;19912;-70
2021/04/04 05:40:20;;;;;;;;;;;6.00;99.90;;;;;;5076826;28;19995;-70
2021/04/04 05:42:50;;;;;;;;;;;6.10;99.90;;;;;;5095465;28;19966;-68
2021/04/04 05:45:19;;;;;;;;;;;6.00;99.90;;;;;;5076356;28;20385;-72
2021/04/04 05:47:52;;;;;;;;;;;6.00;99.90;;;;;;5095051;28;19987;-70
2021/04/04 05:50:21;;;;;;;;;;;6.00;99.90;;;;;;5094629;28;19904;-70
2021/04/04 05:52:58;;;;;;;;;;;5.90;99.90;;;;;;5094211;28;20437;-69
2021/04/04 05:55:38;;;;;;;;;;;5.80;99.90;;;;;;5076509;28;19908;-68
2021/04/04 05:58:07;;;;;;;;;;;5.90;99.90;;;;;;5094141;28;19915;-69
2021/04/04 06:00:34;;;;;;;;;;;5.90;99.90;;;;;;5094870;28;20048;-68
2021/04/04 06:03:12;;;;;;;;;;;5.90;99.90;;;;;;5094627;28;19908;-70
2021/04/04 06:05:56;;;;;;;;;;;5.90;99.90;;;;;;5093823;28;19908;-69
2021/04/04 06:08:25;;;;;;;;;;;5.90;99.90;;;;;;5076318;28;19904;-70
2021/04/04 06:11:00;;;;;;;;;;;6.00;99.90;;;;;;5094259;28;20002;-68
2021/04/04 06:13:48;;;;;;;;;;;5.90;99.90;;;;;;5094139;28;19912;-69
2021/04/04 06:16:14;;;;;;;;;;;6.00;99.90;;;;;;5075566;28;19904;-68
2021/04/04 06:18:55;;;;;;;;;;;5.90;99.90;;;;;;5094283;28;19910;-70
2021/04/04 06:21:49;;;;;;;;;;;5.90;99.90;;;;;;5093894;28;19904;-69
2021/04/04 06:24:34;;;;;;;;;;;5.90;99.90;;;;;;5072492;28;19908;-69
2021/04/04 06:27:02;;;;;;;;;;;6.00;99.90;;;;;;5093858;28;19916;-68
2021/04/04 06:29:34;;;;;;;;;;;6.10;99.90;;;;;;5094047;28;19908;-70
2021/04/04 06:32:07;;;;;;;;;;;6.00;99.90;;;;;;5093964;28;19908;-70
2021/04/04 06:35:08;;;;;;;;;;;6.10;99.90;;;;;;5093697;28;20425;-70
2021/04/04 06:37:53;;;;;;;;;;;6.10;99.90;;;;;;4992122;28;19909;-69
2021/04/04 06:40:36;;;;;;;;;;;6.20;99.90;;;;;;4971748;28;19906;-70
2021/04/04 06:43:19;;;;;;;;;;;6.20;99.90;;;;;;4992177;28;19913;-70
2021/04/04 06:45:45;;;;;;;;;;;6.20;99.90;;;;;;4991616;28;20279;-72
2021/04/04 06:48:19;;;;;;;;;;;6.20;99.90;;;;;;4989660;28;19909;-69
2021/04/04 06:50:48;;;;;;;;;;;6.20;99.90;;;;;;4989755;28;20342;-71
2021/04/04 06:53:32;;;;;;;;;;;6.20;99.90;;;;;;4982990;28;19993;-73
2021/04/04 06:55:58;;;;;;;;;;;6.30;99.90;;;;;;4983425;28;19910;-72
2021/04/04 06:58:41;;;;;;;;;;;6.20;99.90;;;;;;4982613;28;19956;-70
2021/04/04 07:01:09;;;;;;;;;;;6.30;99.90;;;;;;4985778;28;19910;-70
2021/04/04 07:03:43;;;;;;;;;;;6.30;99.90;;;;;;4990789;28;19921;-73
2021/04/04 07:06:40;;;;;;;;;;;6.40;99.90;;;;;;4989500;28;19906;-70
2021/04/04 07:09:29;;;;;;;;;;;6.50;99.90;;;;;;4974884;28;19910;-69
2021/04/04 07:12:01;;;;;;;;;;;6.50;99.90;;;;;;5050533;28;19908;-70
2021/04/04 07:14:35;;;;;;;;;;;6.50;99.90;;;;;;5082628;28;19948;-72
2021/04/04 07:17:19;;;;;;;;;;;6.60;99.90;;;;;;5094950;28;19908;-71
2021/04/04 07:19:47;;;;;;;;;;;6.70;99.90;;;;;;5096278;28;19904;-71
2021/04/04 07:22:18;;;;;;;;;;;6.80;99.90;;;;;;5070191;28;19916;-78
2021/04/04 07:24:48;;;;;;;;;;;7.00;99.90;;;;;;5095173;28;19908;-71
2021/04/04 07:27:26;;;;;;;;;;;7.00;99.90;;;;;;5095233;28;19916;-71
2021/04/04 07:30:29;;;;;;;;;;;7.00;99.90;;;;;;5075760;28;19904;-69
2021/04/04 07:33:13;;;;;;;;;;;7.00;99.90;;;;;;5097089;28;19912;-70
2021/04/04 07:35:57;;;;;;;;;;;6.90;99.90;;;;;;5096776;28;20277;-72
2021/04/04 07:38:52;;;;;;;;;;;6.90;99.90;;;;;;5094615;28;19999;-72
2021/04/04 07:41:30;;;;;;;;;;;6.90;99.90;;;;;;5029132;28;19915;-72
2021/04/04 07:44:14;;;;;;;;;;;6.80;99.90;;;;;;5072063;28;19912;-71
2021/04/04 07:46:49;;;;;;;;;;;6.90;99.90;;;;;;5097039;28;20342;-70
2021/04/04 07:49:34;;;;;;;;;;;7.00;99.90;;;;;;5096306;28;20390;-70
2021/04/04 07:52:04;;;;;;;;;;;7.00;99.90;;;;;;5073699;28;19934;-71
2021/04/04 07:54:35;;;;;;;;;;;6.90;99.90;;;;;;5093147;28;19950;-76
2021/04/04 07:57:08;;;;;;;;;;;6.90;99.90;;;;;;5094909;28;19950;-72
2021/04/04 07:59:47;;;;;;;;;;;7.00;99.90;;;;;;5072764;28;19908;-75
2021/04/04 08:02:13;;;;;;;;;;;7.00;99.90;;;;;;5067836;28;19908;-71
2021/04/04 08:04:48;;;;;;;;;;;7.00;99.90;;;;;;5094954;28;19912;-73
2021/04/04 08:07:32;;;;;;;;;;;7.00;99.90;;;;;;5094168;28;19969;-71
2021/04/04 08:10:07;;;;;;;;;;;7.10;99.90;;;;;;5094694;28;20415;-69
2021/04/04 08:12:39;;;;;;;;;;;7.30;99.90;;;;;;5094537;28;19908;-73
2021/04/04 08:15:06;;;;;;;;;;;7.50;99.90;;;;;;5072823;28;19981;-72
2021/04/04 08:17:33;;;;;;;;;;;7.40;99.90;;;;;;5096015;28;19904;-69
2021/04/04 08:20:01;;;;;;;;;;;7.30;99.90;;;;;;5095253;28;19908;-71
2021/04/04 08:22:29;;;;;;;;;;;7.30;99.90;;;;;;5096163;28;20699;-70
2021/04/04 08:25:04;;;;;;;;;;;7.30;99.90;;;;;;5088743;28;19908;-72
2021/04/04 08:27:35;;;;;;;;;;;7.40;99.90;;;;;;5092161;28;20361;-71
2021/04/04 08:30:06;;;;;;;;;;;7.40;99.90;;;;;;5088455;28;19904;-69
2021/04/04 08:32:37;;;;;;;;;;;7.50;99.90;;;;;;5095213;28;19911;-70
2021/04/04 08:35:05;;;;;;;;;;;7.60;99.90;;;;;;5091834;28;20011;-70
2021/04/04 08:37:43;;;;;;;;;;;7.60;99.90;;;;;;5092235;28;19908;-73
2021/04/04 08:40:11;;;;;;;;;;;7.60;99.90;;;;;;5093777;28;19953;-71
2021/04/04 08:42:37;;;;;;;;;;;7.60;99.90;;;;;;5094094;28;19953;-70
2021/04/04 08:45:08;;;;;;;;;;;7.60;99.90;;;;;;5094316;28;19904;-71
2021/04/04 08:47:38;;;;;;;;;;;7.60;99.90;;;;;;5093892;28;20370;-71
2021/04/04 08:50:05;;;;;;;;;;;7.60;99.90;;;;;;5094534;28;19908;-70
2021/04/04 08:52:31;;;;;;;;;;;7.50;99.90;;;;;;5094300;28;20289;-70
2021/04/04 08:54:57;;;;;;;;;;;7.40;99.90;;;;;;5091009;28;19912;-74
2021/04/04 08:57:43;;;;;;;;;;;7.50;99.90;;;;;;5073963;28;19919;-73
2021/04/04 09:00:10;;;;;;;;;;;7.50;99.90;;;;;;5057283;28;19908;-70
2021/04/04 09:02:38;;;;;;;;;;;7.60;99.90;;;;;;5093529;28;20389;-74
2021/04/04 09:05:05;;;;;;;;;;;7.60;99.90;;;;;;5065396;28;19915;-72
2021/04/04 09:07:34;;;;;;;;;;;7.70;99.90;;;;;;5063416;28;19911;-73
2021/04/04 09:09:59;;;;;;;;;;;7.90;99.90;;;;;;5068668;28;19919;-72
2021/04/04 09:12:31;;;;;;;;;;;7.90;99.90;;;;;;5093058;28;19916;-72
2021/04/04 09:15:01;;;;;;;;;;;8.10;99.90;;;;;;5092405;28;19945;-73
2021/04/04 09:17:27;;;;;;;;;;;8.30;99.90;;;;;;5072290;28;19997;-72
2021/04/04 09:19:57;;;;;;;;;;;8.20;99.90;;;;;;5066993;28;19948;-71
2021/04/04 09:22:23;;;;;;;;;;;8.20;99.90;;;;;;5092338;28;19904;-71
2021/04/04 09:24:49;;;;;;;;;;;8.10;99.90;;;;;;5074542;28;20401;-77
2021/04/04 09:27:14;;;;;;;;;;;;;;;;;;5068904;28;20015;-72
2021/04/04 09:29:41;;;;;;;;;;;8.90;99.90;;;;;;5059138;28;19951;-73
2021/04/04 09:32:11;;;;;;;;;;;8.90;99.90;;;;;;5058584;28;19924;-69
2021/04/04 09:34:38;;;;;;;;;;;9.00;99.90;;;;;;5092777;28;19904;-72
2021/04/04 09:37:04;;;;;;;;;;;9.20;99.90;;;;;;5091671;28;20269;-68
2021/04/04 09:39:30;;;;;;;;;;;9.50;99.90;;;;;;5087083;28;19912;-69
2021/04/04 09:41:57;;;;;;;;;;;9.40;99.90;;;;;;5090546;28;19912;-69
2021/04/04 09:44:30;;;;;;;;;;;9.30;99.90;;;;;;5093353;28;19930;-70
2021/04/04 09:46:59;;;;;;;;;;;9.10;99.90;;;;;;5068422;28;19919;-69
2021/04/04 09:49:51;;;;;;;;;;;9.00;99.90;;;;;;5088931;28;19979;-72
2021/04/04 09:52:19;;;;;;;;;;;8.70;99.90;;;;;;5088490;28;19912;-70
2021/04/04 09:55:02;;;;;;;;;;;8.40;99.90;;;;;;5091480;28;20006;-75
2021/04/04 09:57:28;;;;;;;;;;;8.00;99.90;;;;;;5092411;28;19973;-71
2021/04/04 09:59:56;;;;;;;;;;;8.00;99.90;;;;;;5070064;28;19908;-71
2021/04/04 10:02:32;;;;;;;;;;;8.00;99.90;;;;;;5088951;28;20345;-75
2021/04/04 10:04:57;;;;;;;;;;;8.00;99.90;;;;;;5072635;28;19912;-72
2021/04/04 10:07:27;;;;;;;;;;;7.90;99.90;;;;;;5090261;28;19912;-72
2021/04/04 10:09:53;;;;;;;;;;;7.90;99.90;;;;;;5091971;28;19919;-69
2021/04/04 10:12:18;;;;;;;;;;;7.90;99.90;;;;;;5092308;28;19908;-70
2021/04/04 10:15:19;;;;;;;;;;;7.90;99.90;;;;;;5092280;28;19951;-73
2021/04/04 10:17:52;;;;;;;;;;;8.00;99.90;;;;;;4989403;28;19999;-71
2021/04/04 10:20:28;;;;;;;;;;;8.00;99.90;;;;;;4990684;28;19932;-74
2021/04/04 10:22:54;;;;;;;;;;;8.00;99.90;;;;;;4971523;28;20015;-69
2021/04/04 10:25:19;;;;;;;;;;;8.10;99.90;;;;;;4990492;28;20391;-68
2021/04/04 10:27:55;;;;;;;;;;;8.20;99.90;;;;;;4989991;28;19925;-72
2021/04/04 10:30:23;;;;;;;;;;;8.10;99.90;;;;;;4997292;28;19917;-70
2021/04/04 10:32:51;;;;;;;;;;;8.20;99.90;;;;;;4971759;28;19914;-74
2021/04/04 10:35:28;;;;;;;;;;;8.20;99.90;;;;;;4988497;28;20076;-73
2021/04/04 10:38:10;;;;;;;;;;;8.30;99.90;;;;;;4983441;28;19917;-73
2021/04/04 10:40:39;;;;;;;;;;;8.40;99.90;;;;;;4983015;28;19913;-69
2021/04/04 10:43:05;;;;;;;;;;;8.50;99.90;;;;;;4972700;28;19909;-71
2021/04/04 10:45:31;;;;;;;;;;;8.60;99.90;;;;;;4988321;28;19910;-74
2021/04/04 10:48:04;;;;;;;;;;;8.60;99.90;;;;;;4988428;28;20427;-70
2021/04/04 10:50:30;;;;;;;;;;;8.50;99.90;;;;;;4988831;28;19913;-70
2021/04/04 10:52:57;;;;;;;;;;;8.50;99.90;;;;;;5090130;28;19927;-70
2021/04/04 10:55:25;;;;;;;;;;;8.40;99.90;;;;;;5091714;28;19957;-75
2021/04/04 10:57:52;;;;;;;;;;;8.30;99.90;;;;;;5063787;28;19911;-73
2021/04/04 11:00:19;;;;;;;;;;;8.20;99.90;;;;;;5090878;28;20365;-69
2021/04/04 11:02:44;;;;;;;;;;;8.20;99.90;;;;;;5090034;28;20353;-70
2021/04/04 11:05:10;;;;;;;;;;;8.20;99.90;;;;;;5091157;28;19962;-72
2021/04/04 11:07:36;;;;;;;;;;;8.10;99.90;;;;;;5090497;28;19907;-68
2021/04/04 11:10:06;;;;;;;;;;;8.10;99.90;;;;;;5090767;28;19911;-69
2021/04/04 11:12:32;;;;;;;;;;;8.10;99.90;;;;;;5073049;28;19947;-68
2021/04/04 11:14:59;;;;;;;;;;;8.20;99.90;;;;;;5091083;28;19908;-69
2021/04/04 11:17:25;;;;;;;;;;;8.10;99.90;;;;;;5088418;28;20417;-70
2021/04/04 11:19:51;;;;;;;;;;;8.20;99.90;;;;;;5083186;28;19958;-73
2021/04/04 11:22:21;;;;;;;;;;;8.20;99.90;;;;;;5080092;28;19947;-70
2021/04/04 11:24:56;;;;;;;;;;;8.40;99.90;;;;;;5076910;28;19951;-73
2021/04/04 11:27:40;;;;;;;;;;;8.50;99.90;;;;;;5091763;28;19916;-69
2021/04/04 11:30:13;;;;;;;;;;;8.60;99.90;;;;;;5078786;28;19991;-69
2021/04/04 11:32:40;;;;;;;;;;;8.70;99.90;;;;;;5091561;28;19915;-69
2021/04/04 11:35:09;;;;;;;;;;;8.80;99.90;;;;;;5089636;28;19919;-71
2021/04/04 11:37:35;;;;;;;;;;;9.20;99.90;;;;;;5073669;28;19962;-68
2021/04/04 11:40:16;;;;;;;;;;;9.10;99.90;;;;;;5081997;28;19905;-68
2021/04/04 11:42:42;;;;;;;;;;;9.10;99.90;;;;;;5078326;28;19947;-69
2021/04/04 11:45:08;;;;;;;;;;;9.10;99.90;;;;;;5082056;28;20319;-69
2021/04/04 11:47:34;;;;;;;;;;;9.10;99.90;;;;;;5084089;28;19908;-69
2021/04/04 11:50:00;;;;;;;;;;;9.20;99.90;;;;;;5083030;28;19998;-69
2021/04/04 11:52:26;;;;;;;;;;;9.20;99.90;;;;;;5087311;28;20308;-71
2021/04/04 11:54:56;;;;;;;;;;;9.50;99.90;;;;;;5091905;28;20329;-68
2021/04/04 11:57:26;;;;;;;;;;;9.40;99.90;;;;;;5095948;28;19904;-67
2021/04/04 11:59:56;;;;;;;;;;;9.40;99.90;;;;;;5096272;28;19904;-74
2021/04/04 12:02:23;;;;;;;;;;;9.60;99.90;;;;;;5093914;28;19903;-70
2021/04/04 12:05:04;;;;;;;;;;;9.70;99.90;;;;;;5094180;28;19911;-69
2021/04/04 12:07:30;;;;;;;;;;;9.40;99.90;;;;;;5077900;28;19915;-73
2021/04/04 12:09:56;;;;;;;;;;;9.20;99.90;;;;;;5062149;28;19907;-72
2021/04/04 12:12:21;;;;;;;;;;;9.00;99.90;;;;;;5083884;28;19939;-74
2021/04/04 12:14:51;;;;;;;;;;;9.00;99.90;;;;;;5088693;28;19914;-75
2021/04/04 12:17:17;;;;;;;;;;;9.00;99.90;;;;;;5093268;28;19904;-74
2021/04/04 12:19:43;;;;;;;;;;;9.10;99.90;;;;;;5095596;28;19908;-75
2021/04/04 12:22:12;;;;;;;;;;;9.40;99.90;;;;;;5095534;28;19911;-76
2021/04/04 12:24:40;;;;;;;;;;;9.50;99.90;;;;;;5070091;28;19918;-78
2021/04/04 12:27:07;;;;;;;;;;;9.60;99.90;;;;;;5095612;28;19938;-78
2021/04/04 12:29:43;;;;;;;;;;;9.60;99.90;;;;;;5093765;28;19963;-79
2021/04/04 12:32:09;;;;;;;;;;;9.60;99.90;;;;;;5092412;28;19916;-76
2021/04/04 12:34:38;;;;;;;;;;;9.80;99.90;;;;;;5092928;28;20002;-76
2021/04/04 12:37:08;;;;;;;;;;;9.90;99.90;;;;;;5091588;28;19909;-77
2021/04/04 12:39:34;;;;;;;;;;;9.90;99.90;;;;;;5095847;28;19908;-76
2021/04/04 12:41:59;;;;;;;;;;;10.10;99.90;;;;;;5093949;28;19922;-76
2021/04/04 12:44:39;;;;;;;;;;;10.20;99.90;;;;;;5094443;28;20036;-79
2021/04/04 12:47:08;;;;;;;;;;;10.30;99.90;;;;;;5094005;28;19906;-78
2021/04/04 12:49:34;;;;;;;;;;;10.10;99.90;;;;;;5076957;28;19908;-78
2021/04/04 12:52:00;;;;;;;;;;;9.70;99.90;;;;;;5094090;28;19908;-77
2021/04/04 12:54:29;;;;;;;;;;;9.50;99.90;;;;;;5093199;28;19923;-77
2021/04/04 12:56:54;;;;;;;;;;;9.50;99.90;;;;;;5095195;28;19998;-79
2021/04/04 12:59:20;;;;;;;;;;;9.50;99.90;;;;;;5075935;28;20007;-74
2021/04/04 13:01:46;;;;;;;;;;;9.50;99.90;;;;;;5094993;28;19943;-74
2021/04/04 13:04:16;;;;;;;;;;;9.50;99.90;;;;;;5075659;28;19912;-74
2021/04/04 13:06:42;;;;;;;;;;;9.50;99.90;;;;;;5075567;28;19908;-76
2021/04/04 13:09:09;;;;;;;;;;;9.50;99.90;;;;;;5094962;28;19949;-74
2021/04/04 13:11:35;;;;;;;;;;;9.50;99.90;;;;;;5091303;28;20366;-82
2021/04/04 13:14:01;;;;;;;;;;;9.60;99.90;;;;;;5066292;28;19923;-75
2021/04/04 13:16:27;;;;;;;;;;;9.80;99.90;;;;;;5057090;28;19998;-74
2021/04/04 13:18:52;;;;;;;;;;;9.90;99.90;;;;;;5091949;28;19911;-77
